METAR Data
IDs: Format: Raw Decoded Include TAF

Data at: 2041 UTC 19 Jan 2019

KMQY 191956Z 15003KT 7SM -RA SCT014 SCT034 OVC060 14/13 A2945 RMK AO2 SLP883 P0017 T01390133